createdAt,value
2023-02-05T00:02:07.291Z,-0.76
2023-02-05T00:07:09.077Z,-0.80
2023-02-05T00:12:11.043Z,-0.90
2023-02-05T00:17:12.636Z,-0.81
2023-02-05T00:22:14.268Z,-1.01
2023-02-05T00:27:15.867Z,-1.11
2023-02-05T00:32:17.931Z,-1.20
2023-02-05T00:37:19.544Z,-1.11
2023-02-05T00:42:21.272Z,-1.00
2023-02-05T00:47:22.933Z,-1.35
2023-02-05T00:52:24.761Z,-1.55
2023-02-05T00:57:26.534Z,-1.54
2023-02-05T01:02:28.243Z,-1.71
2023-02-05T01:07:29.906Z,-1.66
2023-02-05T01:12:33.300Z,-1.71
2023-02-05T01:17:35.302Z,-1.80
2023-02-05T01:22:37.441Z,-2.02
2023-02-05T01:27:39.338Z,-2.05
2023-02-05T01:32:41.687Z,-2.12
2023-02-05T01:37:43.336Z,-2.19
2023-02-05T01:42:45.628Z,-2.04
2023-02-05T01:47:48.488Z,-2.21
2023-02-05T01:52:50.663Z,-2.28
2023-02-05T01:57:53.771Z,-2.27
2023-02-05T02:02:55.544Z,-2.26
2023-02-05T02:07:57.208Z,-2.41
2023-02-05T02:12:58.895Z,-2.70
2023-02-05T02:18:22.126Z,-2.72
2023-02-05T02:23:56.108Z,-2.62
2023-02-05T02:29:03.838Z,-2.77
2023-02-05T02:34:10.357Z,-2.79
2023-02-05T02:39:25.423Z,-2.99
2023-02-05T02:44:42.395Z,-2.96
2023-02-05T02:49:49.585Z,-2.89
2023-02-05T02:54:54.664Z,-2.88
2023-02-05T03:00:01.275Z,-3.15
2023-02-05T03:05:11.544Z,-3.24
2023-02-05T03:10:20.403Z,-3.18
2023-02-05T03:15:22.339Z,-3.24
2023-02-05T03:20:29.816Z,-3.37
2023-02-05T03:25:31.597Z,-3.50
2023-02-05T03:30:49.048Z,-3.40
2023-02-05T03:36:08.416Z,-3.38
2023-02-05T03:41:57.061Z,-3.65
2023-02-05T03:47:20.111Z,-3.65
2023-02-05T03:52:32.645Z,-3.53
2023-02-05T03:58:06.569Z,-3.65
2023-02-05T04:03:08.382Z,-3.67
2023-02-05T04:08:11.059Z,-3.95
2023-02-05T04:13:18.929Z,-3.78
2023-02-05T04:18:20.717Z,-3.81
2023-02-05T04:23:24.173Z,-3.94
2023-02-05T04:28:27.083Z,-4.05
2023-02-05T04:33:29.011Z,-3.93
2023-02-05T04:38:30.806Z,-4.07
2023-02-05T04:43:32.448Z,-4.12
2023-02-05T04:48:35.232Z,-4.10
2023-02-05T04:53:37.366Z,-4.27
2023-02-05T04:58:39.319Z,-4.43
2023-02-05T05:03:41.515Z,-4.19
2023-02-05T05:08:43.565Z,-4.26
2023-02-05T05:13:46.068Z,-4.24
2023-02-05T05:18:47.750Z,-4.18
2023-02-05T05:23:49.438Z,-4.10
2023-02-05T05:28:54.853Z,-3.76
2023-02-05T05:33:56.456Z,-3.26
2023-02-05T05:39:18.021Z,-3.25
2023-02-05T05:44:19.627Z,-3.45
2023-02-05T05:49:21.389Z,-3.29
2023-02-05T05:54:23.024Z,-3.25
2023-02-05T05:59:24.628Z,-3.47
2023-02-05T06:04:26.235Z,-3.41
2023-02-05T06:09:28.259Z,-3.37
2023-02-05T06:14:29.882Z,-3.13
2023-02-05T06:19:31.608Z,-3.41
2023-02-05T06:24:33.237Z,-3.33
2023-02-05T06:29:34.897Z,-3.67
2023-02-05T06:34:36.513Z,-3.42
2023-02-05T06:39:38.104Z,-3.45
2023-02-05T06:44:39.720Z,-3.37
2023-02-05T06:49:41.411Z,-3.45
2023-02-05T06:54:44.716Z,-3.63
2023-02-05T06:59:46.332Z,-3.41
2023-02-05T07:04:47.979Z,-3.43
2023-02-05T07:09:49.634Z,-3.23
2023-02-05T07:14:51.262Z,-3.03
2023-02-05T07:19:53.284Z,-3.07
2023-02-05T07:24:54.983Z,-2.32
2023-02-05T07:29:56.566Z,-1.99
2023-02-05T07:34:58.213Z,-1.60
2023-02-05T07:39:59.824Z,-1.62
2023-02-05T07:45:01.485Z,-1.45
2023-02-05T07:50:04.830Z,-1.14
2023-02-05T07:55:06.606Z,-0.71
2023-02-05T08:00:10.137Z,-0.73
2023-02-05T08:05:14.661Z,-0.70
2023-02-05T08:10:16.515Z,-0.27
2023-02-05T08:15:18.228Z,-0.05
2023-02-05T08:20:19.954Z,0.07
2023-02-05T08:25:21.692Z,0.55
2023-02-05T08:30:23.599Z,0.61
2023-02-05T08:35:25.259Z,0.90
2023-02-05T08:40:26.868Z,1.80
2023-02-05T08:45:29.643Z,1.47
2023-02-05T08:50:31.454Z,1.45
2023-02-05T08:55:33.955Z,0.41
2023-02-05T09:00:38.012Z,1.23
2023-02-05T09:05:39.801Z,2.00
2023-02-05T09:10:45.014Z,2.67
2023-02-05T09:15:48.596Z,2.94
2023-02-05T09:20:51.417Z,3.60
2023-02-05T09:25:53.218Z,4.19
2023-02-05T09:30:54.903Z,4.49
2023-02-05T09:35:56.531Z,5.85
2023-02-05T09:41:05.370Z,5.78
2023-02-05T09:46:28.782Z,5.40
2023-02-05T09:51:38.745Z,5.84
2023-02-05T09:56:42.236Z,5.22
2023-02-05T10:01:55.041Z,4.26
2023-02-05T10:07:14.844Z,4.62
2023-02-05T10:12:26.736Z,3.84
2023-02-05T10:18:05.942Z,3.40
2023-02-05T10:23:32.269Z,2.05
2023-02-05T10:28:57.527Z,2.18
2023-02-05T10:34:15.251Z,3.15
2023-02-05T10:39:19.435Z,3.46
2023-02-05T10:44:30.151Z,2.78
2023-02-05T10:50:03.927Z,2.65
2023-02-05T10:55:05.988Z,3.56
2023-02-05T11:00:22.502Z,3.65
2023-02-05T11:05:40.510Z,3.14
2023-02-05T11:10:42.182Z,3.01
2023-02-05T11:15:55.807Z,3.48
2023-02-05T11:21:02.563Z,3.27
2023-02-05T11:26:18.257Z,3.72
2023-02-05T11:31:33.083Z,2.93
2023-02-05T11:36:37.320Z,3.17
2023-02-05T11:41:51.917Z,3.17
2023-02-05T11:46:57.575Z,3.29
2023-02-05T11:52:00.134Z,2.85
2023-02-05T11:57:03.545Z,3.23
2023-02-05T12:02:30.663Z,4.60
2023-02-05T12:08:13.592Z,3.21
2023-02-05T12:13:22.961Z,4.83
2023-02-05T12:18:44.339Z,4.63
2023-02-05T12:24:07.024Z,5.04
2023-02-05T12:29:46.181Z,5.49
2023-02-05T12:35:05.830Z,4.98
2023-02-05T12:40:23.696Z,3.92
2023-02-05T12:45:49.927Z,4.18
2023-02-05T12:51:09.991Z,3.44
2023-02-05T12:56:23.358Z,3.96
2023-02-05T13:01:37.981Z,3.51
2023-02-05T13:06:48.990Z,3.90
2023-02-05T13:12:02.179Z,3.44
2023-02-05T13:17:11.566Z,2.74
2023-02-05T13:22:53.033Z,2.96
2023-02-05T13:28:16.867Z,3.14
2023-02-05T13:33:18.716Z,2.90
2023-02-05T13:38:45.906Z,2.98
2023-02-05T13:44:09.135Z,2.72
2023-02-05T13:49:32.427Z,3.02
2023-02-05T13:54:53.244Z,2.91
2023-02-05T13:59:56.421Z,2.78
2023-02-05T14:05:00.708Z,2.78
2023-02-05T14:10:02.964Z,2.52
2023-02-05T14:15:16.960Z,2.76
2023-02-05T14:20:24.582Z,2.81
2023-02-05T14:25:35.393Z,2.74
2023-02-05T14:30:53.021Z,3.23
2023-02-05T14:35:56.553Z,3.90
2023-02-05T14:41:22.958Z,3.37
2023-02-05T14:46:41.968Z,2.55
2023-02-05T14:51:51.427Z,2.29
2023-02-05T14:57:09.214Z,2.46
2023-02-05T15:02:48.281Z,2.01
2023-02-05T15:08:00.587Z,2.09
2023-02-05T15:13:15.005Z,1.95
2023-02-05T15:18:32.211Z,1.92
2023-02-05T15:23:51.383Z,1.71
2023-02-05T15:29:00.550Z,1.61
2023-02-05T15:34:38.647Z,1.50
2023-02-05T15:39:56.360Z,1.30
2023-02-05T15:44:58.091Z,1.22
2023-02-05T15:50:01.602Z,1.07
2023-02-05T15:55:13.226Z,1.03
2023-02-05T16:00:22.500Z,0.88
2023-02-05T16:05:25.939Z,0.68
2023-02-05T16:10:30.660Z,0.55
2023-02-05T16:15:41.214Z,0.61
2023-02-05T16:20:53.855Z,0.45
2023-02-05T16:25:57.500Z,0.39
2023-02-05T16:31:00.830Z,0.38
2023-02-05T16:36:07.045Z,0.08
2023-02-05T16:41:19.754Z,0.09
2023-02-05T16:46:24.179Z,-0.16
2023-02-05T16:51:45.438Z,-0.37
2023-02-05T16:57:05.063Z,-0.54
2023-02-05T17:02:23.313Z,-0.17
2023-02-05T17:07:25.198Z,-0.04
2023-02-05T17:12:32.548Z,-0.19
2023-02-05T17:17:49.048Z,-0.49
2023-02-05T17:23:05.690Z,-0.52
2023-02-05T17:28:13.181Z,-0.50
2023-02-05T17:33:23.521Z,-0.74
2023-02-05T17:38:25.125Z,-0.79
2023-02-05T17:43:26.727Z,-0.97
2023-02-05T17:48:28.352Z,-1.05
2023-02-05T17:53:30.031Z,-1.22
2023-02-05T17:58:31.824Z,-1.23
2023-02-05T18:03:33.478Z,-1.43
2023-02-05T18:08:37.125Z,-1.53
2023-02-05T18:13:38.865Z,-1.73
2023-02-05T18:18:40.503Z,-1.57
2023-02-05T18:23:42.493Z,-1.63
2023-02-05T18:28:45.202Z,-1.91
2023-02-05T18:33:48.438Z,-1.92
2023-02-05T18:38:50.063Z,-1.92
2023-02-05T18:43:56.170Z,-1.91
2023-02-05T18:48:57.785Z,-1.97
2023-02-05T18:53:59.584Z,-2.10
2023-02-05T18:59:06.013Z,-2.38
2023-02-05T19:04:13.848Z,-2.38
2023-02-05T19:09:15.461Z,-2.23
2023-02-05T19:14:19.382Z,-2.55
2023-02-05T19:19:23.832Z,-2.64
2023-02-05T19:24:25.478Z,-2.65
2023-02-05T19:29:27.679Z,-2.68
2023-02-05T19:34:29.448Z,-2.68
2023-02-05T19:39:32.158Z,-2.72
2023-02-05T19:44:33.818Z,-2.72
2023-02-05T19:49:35.461Z,-3.03
2023-02-05T19:54:37.069Z,-3.03
2023-02-05T19:59:38.671Z,-3.03
2023-02-05T20:04:41.098Z,-3.21
2023-02-05T20:09:42.731Z,-3.19
2023-02-05T20:14:44.503Z,-3.28
2023-02-05T20:19:46.102Z,-3.32
2023-02-05T20:24:47.856Z,-3.17
2023-02-05T20:30:07.823Z,-3.17
2023-02-05T20:35:09.465Z,-3.10
2023-02-05T20:40:11.549Z,-3.18
2023-02-05T20:45:13.167Z,-3.29
2023-02-05T20:50:14.967Z,-3.56
2023-02-05T20:55:16.655Z,-3.66
2023-02-05T21:00:21.025Z,-3.63
2023-02-05T21:05:22.638Z,-3.63
2023-02-05T21:10:24.308Z,-3.77
2023-02-05T21:15:26.771Z,-4.03
2023-02-05T21:20:28.369Z,-4.03
2023-02-05T21:25:30.029Z,-4.00
2023-02-05T21:30:31.667Z,-4.00
2023-02-05T21:35:37.541Z,-4.08
2023-02-05T21:40:39.197Z,-4.10
2023-02-05T21:45:40.834Z,-4.10
2023-02-05T21:50:42.467Z,-4.10
2023-02-05T21:55:44.060Z,-4.07
2023-02-05T22:00:45.699Z,-4.34
2023-02-05T22:05:47.290Z,-4.24
2023-02-05T22:10:48.945Z,-4.24
2023-02-05T22:15:50.935Z,-4.14
2023-02-05T22:20:52.529Z,-4.49
2023-02-05T22:25:54.148Z,-142.80
2023-02-05T22:31:02.907Z,-142.80
2023-02-05T22:36:05.984Z,-4.49
2023-02-05T22:41:22.759Z,-4.49
2023-02-05T22:46:27.397Z,-142.80
2023-02-05T22:51:33.830Z,23.36
2023-02-05T22:56:35.731Z,-142.80
2023-02-05T23:01:39.012Z,-142.80
2023-02-05T23:06:42.781Z,-142.80
2023-02-05T23:11:45.380Z,-142.80
2023-02-05T23:16:47.860Z,-142.80
2023-02-05T23:21:49.833Z,-142.80
2023-02-05T23:26:53.395Z,-4.49
2023-02-05T23:31:55.030Z,-142.80
2023-02-05T23:36:56.652Z,-142.80
2023-02-05T23:41:58.442Z,-142.80
2023-02-05T23:47:00.033Z,-142.80
2023-02-05T23:52:01.630Z,-142.80
2023-02-05T23:57:03.403Z,-142.80
